createdAt,value
2022-11-02T00:02:10.946Z,101320.81
2022-11-02T00:04:37.481Z,101320.66
2022-11-02T00:07:04.027Z,101322.50
2022-11-02T00:09:30.586Z,101319.13
2022-11-02T00:11:57.076Z,101315.66
2022-11-02T00:14:23.640Z,101309.66
2022-11-02T00:16:50.210Z,101313.09
2022-11-02T00:19:16.762Z,101312.41
2022-11-02T00:21:43.687Z,101312.47
2022-11-02T00:24:12.547Z,101317.69
2022-11-02T00:26:39.273Z,101316.97
2022-11-02T00:29:07.160Z,101310.13
2022-11-02T00:31:33.664Z,101312.88
2022-11-02T00:34:00.142Z,101322.69
2022-11-02T00:36:27.948Z,101314.69
2022-11-02T00:38:54.473Z,101310.97
2022-11-02T00:41:21.311Z,101312.59
2022-11-02T00:43:47.925Z,101316.84
2022-11-02T00:46:14.597Z,101309.66
2022-11-02T00:48:41.119Z,101308.41
2022-11-02T00:51:07.618Z,101316.00
2022-11-02T00:53:34.098Z,101321.88
2022-11-02T00:56:00.815Z,101316.41
2022-11-02T00:58:27.296Z,101320.44
2022-11-02T01:00:53.798Z,101313.53
2022-11-02T01:03:20.320Z,101318.50
2022-11-02T01:05:46.817Z,101312.38
2022-11-02T01:08:13.547Z,101309.00
2022-11-02T01:10:42.755Z,101316.81
2022-11-02T01:13:12.110Z,101310.75
2022-11-02T01:15:38.618Z,101318.47
2022-11-02T01:18:05.977Z,101317.59
2022-11-02T01:20:32.680Z,101305.75
2022-11-02T01:22:59.364Z,101312.59
2022-11-02T01:25:26.270Z,101317.59
2022-11-02T01:27:52.760Z,101317.59
2022-11-02T01:30:19.493Z,101316.97
2022-11-02T01:32:46.053Z,101321.47
2022-11-02T01:35:12.527Z,101313.56
2022-11-02T01:37:39.465Z,101325.09
2022-11-02T01:40:06.355Z,101321.78
2022-11-02T01:42:32.969Z,101327.94
2022-11-02T01:44:59.523Z,101318.25
2022-11-02T01:47:31.359Z,101324.31
2022-11-02T01:50:06.631Z,101324.25
2022-11-02T01:52:36.435Z,101330.16
2022-11-02T01:55:22.597Z,101332.56
2022-11-02T01:58:12.704Z,101330.03
2022-11-02T02:00:40.144Z,101336.78
2022-11-02T02:03:12.567Z,101329.94
2022-11-02T02:05:47.080Z,101338.63
2022-11-02T02:08:17.978Z,101334.69
2022-11-02T02:10:44.549Z,101327.78
2022-11-02T02:13:12.199Z,101333.22
2022-11-02T02:16:05.520Z,101338.56
2022-11-02T02:18:49.603Z,101341.41
2022-11-02T02:21:31.022Z,101329.31
2022-11-02T02:24:31.021Z,101332.78
2022-11-02T02:27:00.715Z,101329.22
2022-11-02T02:29:30.181Z,101327.38
2022-11-02T02:32:13.719Z,101325.59
2022-11-02T02:34:53.807Z,101329.97
2022-11-02T02:37:29.239Z,101326.44
2022-11-02T02:40:00.271Z,101328.44
2022-11-02T02:42:54.964Z,101319.69
2022-11-02T02:45:39.397Z,101322.06
2022-11-02T02:48:21.371Z,101324.69
2022-11-02T02:50:50.518Z,101320.38
2022-11-02T02:53:22.899Z,101320.53
2022-11-02T02:55:50.684Z,101327.44
2022-11-02T02:58:24.773Z,101328.97
2022-11-02T03:00:55.768Z,101332.50
2022-11-02T03:03:25.328Z,101329.97
2022-11-02T03:06:20.676Z,101333.34
2022-11-02T03:09:11.395Z,101332.66
2022-11-02T03:11:49.746Z,101331.34
2022-11-02T03:14:38.447Z,101341.94
2022-11-02T03:17:15.570Z,101349.78
2022-11-02T03:20:00.646Z,101349.00
2022-11-02T03:22:34.917Z,101347.09
2022-11-02T03:25:17.443Z,101356.69
2022-11-02T03:28:08.176Z,101351.66
2022-11-02T03:30:43.271Z,101356.81
2022-11-02T03:33:20.682Z,101360.34
2022-11-02T03:36:16.654Z,101367.53
2022-11-02T03:38:56.173Z,101372.81
2022-11-02T03:41:24.687Z,101373.78
2022-11-02T03:43:57.209Z,101368.78
2022-11-02T03:46:24.156Z,101375.75
2022-11-02T03:48:54.308Z,101379.25
2022-11-02T03:51:24.754Z,101391.50
2022-11-02T03:53:59.831Z,101388.97
2022-11-02T03:56:38.852Z,101387.13
2022-11-02T03:59:05.541Z,101388.25
2022-11-02T04:01:39.153Z,101402.19
2022-11-02T04:04:05.927Z,101398.81
2022-11-02T04:06:33.150Z,101409.38
2022-11-02T04:09:00.224Z,101405.31
2022-11-02T04:11:46.320Z,101403.63
2022-11-02T04:14:42.510Z,101409.75
2022-11-02T04:19:57.863Z,101417.81
2022-11-02T04:22:43.162Z,101418.88
2022-11-02T04:25:21.053Z,101420.56
2022-11-02T04:27:52.261Z,101426.47
2022-11-02T04:30:21.202Z,101430.00
2022-11-02T04:33:08.662Z,101428.31
2022-11-02T04:35:36.549Z,101427.72
2022-11-02T04:38:21.947Z,101436.44
2022-11-02T04:40:48.669Z,101439.13
2022-11-02T04:43:15.232Z,101450.47
2022-11-02T04:45:41.738Z,101451.47
2022-11-02T04:48:09.871Z,101458.50
2022-11-02T04:50:37.294Z,101449.91
2022-11-02T04:53:07.126Z,101467.19
2022-11-02T04:55:34.221Z,101468.03
2022-11-02T04:58:00.959Z,101466.19
2022-11-02T05:00:27.840Z,101464.44
2022-11-02T05:02:54.441Z,101468.94
2022-11-02T05:05:21.031Z,101463.78
2022-11-02T05:07:47.530Z,101476.69
2022-11-02T05:10:14.592Z,101472.31
2022-11-02T05:12:41.448Z,101477.66
2022-11-02T05:15:08.285Z,101477.53
2022-11-02T05:17:34.879Z,101479.97
2022-11-02T05:20:02.321Z,101483.22
2022-11-02T05:22:28.890Z,101480.69
2022-11-02T05:24:55.463Z,101490.25
2022-11-02T05:27:22.025Z,101481.75
2022-11-02T05:29:48.561Z,101485.34
2022-11-02T05:32:15.081Z,101487.09
2022-11-02T05:34:41.568Z,101491.47
2022-11-02T05:37:08.193Z,101499.38
2022-11-02T05:39:34.751Z,101495.09
2022-11-02T05:42:01.414Z,101498.81
2022-11-02T05:44:27.877Z,101497.34
2022-11-02T05:46:54.406Z,101494.84
2022-11-02T05:49:20.911Z,101493.88
2022-11-02T05:51:47.416Z,101502.66
2022-11-02T05:54:13.903Z,101500.06
2022-11-02T05:56:43.111Z,101505.41
2022-11-02T05:59:10.178Z,101509.09
2022-11-02T06:01:36.767Z,101515.53
2022-11-02T06:04:03.505Z,101523.44
2022-11-02T06:06:30.037Z,101524.47
2022-11-02T06:08:56.551Z,101532.38
2022-11-02T06:11:23.418Z,101536.09
2022-11-02T06:13:51.342Z,101538.81
2022-11-02T06:16:22.996Z,101548.50
2022-11-02T06:18:50.211Z,101551.97
2022-11-02T06:21:16.734Z,101550.34
2022-11-02T06:23:43.692Z,101564.28
2022-11-02T06:26:11.366Z,101574.81
2022-11-02T06:28:37.874Z,101578.09
2022-11-02T06:31:04.563Z,101578.09
2022-11-02T06:33:31.084Z,101592.78
2022-11-02T06:35:58.044Z,101592.94
2022-11-02T06:38:25.335Z,101592.06
2022-11-02T06:41:04.077Z,101596.31
2022-11-02T06:43:30.786Z,101596.09
2022-11-02T06:45:58.425Z,101606.44
2022-11-02T06:48:32.977Z,101593.22
2022-11-02T06:51:01.668Z,101609.47
2022-11-02T06:53:28.220Z,101611.22
2022-11-02T06:55:56.056Z,101624.19
2022-11-02T06:58:24.237Z,101636.38
2022-11-02T07:00:51.595Z,101639.75
2022-11-02T07:03:18.124Z,101652.63
2022-11-02T07:05:51.390Z,101647.44
2022-11-02T07:08:18.340Z,101645.72
2022-11-02T07:10:45.414Z,101660.47
2022-11-02T07:13:12.133Z,101674.13
2022-11-02T07:15:39.789Z,101682.00
2022-11-02T07:18:06.883Z,101682.09
2022-11-02T07:20:33.690Z,101687.28
2022-11-02T07:23:01.969Z,101692.50
2022-11-02T07:25:33.501Z,101705.59
2022-11-02T07:28:01.274Z,101694.38
2022-11-02T07:30:32.933Z,101711.88
2022-11-02T07:32:59.861Z,101714.47
2022-11-02T07:35:26.959Z,101717.06
2022-11-02T07:38:11.678Z,101725.72
2022-11-02T07:40:39.167Z,101728.41
2022-11-02T07:43:07.034Z,101739.75
2022-11-02T07:45:33.860Z,101735.28
2022-11-02T07:48:00.898Z,101734.19
2022-11-02T07:50:27.586Z,101745.38
2022-11-02T07:52:58.266Z,101758.72
2022-11-02T07:55:28.526Z,101744.34
2022-11-02T07:58:01.968Z,101767.81
2022-11-02T08:00:31.415Z,101756.53
2022-11-02T08:02:59.670Z,101765.13
2022-11-02T08:05:27.798Z,101769.63
2022-11-02T08:08:05.724Z,101771.34
2022-11-02T08:10:37.401Z,101770.63
2022-11-02T08:13:08.624Z,101778.38
2022-11-02T08:15:35.236Z,101773.03
2022-11-02T08:18:14.620Z,101785.28
2022-11-02T08:20:41.789Z,101785.16
2022-11-02T08:23:10.754Z,101791.16
2022-11-02T08:25:38.661Z,101784.16
2022-11-02T08:28:07.203Z,101782.28
2022-11-02T08:30:34.084Z,101796.97
2022-11-02T08:33:19.873Z,101793.53
2022-11-02T08:35:47.991Z,101795.94
2022-11-02T08:38:14.944Z,101796.41
2022-11-02T08:40:41.993Z,101797.09
2022-11-02T08:43:14.075Z,101808.09
2022-11-02T08:46:13.287Z,101812.22
2022-11-02T08:48:30.066Z,101813.72
2022-11-02T08:50:59.461Z,101820.28
2022-11-02T08:53:26.043Z,101821.06
2022-11-02T08:55:52.612Z,101822.53
2022-11-02T08:58:20.207Z,101829.22
2022-11-02T09:00:46.754Z,101810.47
2022-11-02T09:03:15.566Z,101821.34
2022-11-02T09:05:44.240Z,101822.81
2022-11-02T09:08:17.002Z,101823.66
2022-11-02T09:10:44.214Z,101828.97
2022-11-02T09:13:13.330Z,101832.59
2022-11-02T09:15:40.202Z,101832.81
2022-11-02T09:18:08.293Z,101826.03
2022-11-02T09:20:35.634Z,101822.56
2022-11-02T09:23:02.440Z,101828.69
2022-11-02T09:25:29.053Z,101837.50
2022-11-02T09:27:57.011Z,101847.03
2022-11-02T09:30:25.621Z,101853.28
2022-11-02T09:32:59.471Z,101857.69
2022-11-02T09:35:28.075Z,101856.69
2022-11-02T09:37:54.596Z,101841.41
2022-11-02T09:40:24.324Z,101838.50
2022-11-02T09:43:15.780Z,101835.81
2022-11-02T09:46:06.489Z,101844.72
2022-11-02T09:48:41.436Z,101837.63
2022-11-02T09:51:11.858Z,101842.78
2022-11-02T09:54:06.152Z,101842.06
2022-11-02T09:56:34.717Z,101842.34
2022-11-02T09:59:06.071Z,101841.63
2022-11-02T10:01:51.533Z,101838.25
2022-11-02T10:04:30.202Z,101835.56
2022-11-02T10:07:18.363Z,101851.41
2022-11-02T10:10:00.986Z,101867.81
2022-11-02T10:12:46.053Z,101869.72
2022-11-02T10:15:22.984Z,101872.91
2022-11-02T10:17:56.579Z,101878.63
2022-11-02T10:20:41.650Z,101873.84
2022-11-02T10:23:12.452Z,101874.94
2022-11-02T10:25:39.193Z,101879.19
2022-11-02T10:28:15.649Z,101879.31
2022-11-02T10:30:44.462Z,101877.75
2022-11-02T10:33:15.110Z,101882.28
2022-11-02T10:35:57.724Z,101889.03
2022-11-02T10:38:56.294Z,101869.69
2022-11-02T10:41:26.172Z,101872.84
2022-11-02T10:44:06.839Z,101882.97
2022-11-02T10:46:39.857Z,101873.97
2022-11-02T10:49:16.279Z,101874.34
2022-11-02T10:51:42.966Z,101884.59
2022-11-02T10:54:17.703Z,101871.13
2022-11-02T10:56:49.559Z,101885.78
2022-11-02T10:59:23.605Z,101882.16
2022-11-02T11:01:56.408Z,101883.78
2022-11-02T11:04:26.573Z,101889.84
2022-11-02T11:06:54.484Z,101889.00
2022-11-02T11:09:24.897Z,101889.84
2022-11-02T11:12:03.914Z,101893.00
2022-11-02T11:20:36.286Z,101890.84
2022-11-02T11:23:15.763Z,101886.53
2022-11-02T11:25:43.027Z,101890.00
2022-11-02T11:28:27.961Z,101889.91
2022-11-02T11:31:17.914Z,101890.59
2022-11-02T11:33:48.531Z,101895.56
2022-11-02T11:36:31.244Z,101883.50
2022-11-02T11:39:03.631Z,101890.84
2022-11-02T11:41:32.827Z,101890.91
2022-11-02T11:44:01.635Z,101892.53
2022-11-02T11:46:44.435Z,101899.69
2022-11-02T11:50:03.404Z,101890.00
2022-11-02T11:52:36.282Z,101902.06
2022-11-02T11:55:20.126Z,101884.75
2022-11-02T11:57:46.839Z,101887.66
2022-11-02T12:00:28.475Z,101886.84
2022-11-02T12:03:12.617Z,101881.94
2022-11-02T12:06:14.134Z,101884.38
2022-11-02T12:09:11.947Z,101880.38
2022-11-02T12:11:56.986Z,101884.13
2022-11-02T12:15:07.363Z,101878.72
2022-11-02T12:17:47.567Z,101877.03
2022-11-02T12:20:35.686Z,101862.72
2022-11-02T12:23:15.718Z,101866.84
2022-11-02T12:26:05.823Z,101866.94
2022-11-02T12:28:59.314Z,101864.81
2022-11-02T12:31:37.050Z,101871.88
2022-11-02T12:34:24.792Z,101869.66
2022-11-02T12:37:35.830Z,101872.41
2022-11-02T12:40:41.594Z,101866.19
2022-11-02T12:43:29.988Z,101876.84
2022-11-02T12:46:02.695Z,101867.03
2022-11-02T12:48:32.206Z,101878.53
2022-11-02T12:51:05.321Z,101863.88
2022-11-02T12:53:48.978Z,101869.78
2022-11-02T12:56:25.129Z,101872.09
2022-11-02T12:58:52.319Z,101873.00
2022-11-02T13:01:28.356Z,101866.75
2022-11-02T13:04:01.863Z,101871.34
2022-11-02T13:06:39.866Z,101866.22
2022-11-02T13:09:15.019Z,101861.00
2022-11-02T13:11:54.484Z,101863.44
2022-11-02T13:14:23.516Z,101865.06
2022-11-02T13:17:03.205Z,101851.31
2022-11-02T13:19:39.239Z,101848.47
2022-11-02T13:22:10.341Z,101841.25
2022-11-02T13:24:47.570Z,101843.66
2022-11-02T13:27:36.280Z,101841.72
2022-11-02T13:30:13.189Z,101835.69
2022-11-02T13:32:44.426Z,101835.25
2022-11-02T13:35:29.420Z,101839.00
2022-11-02T13:38:20.922Z,101833.25
2022-11-02T13:41:08.375Z,101835.16
2022-11-02T13:43:49.137Z,101834.47
2022-11-02T13:46:37.747Z,101824.16
2022-11-02T13:49:17.772Z,101833.56
2022-11-02T13:51:49.404Z,101840.38
2022-11-02T13:54:23.744Z,101840.66
2022-11-02T13:56:57.433Z,101830.56
2022-11-02T13:59:30.908Z,101833.63
2022-11-02T14:02:00.505Z,101832.41
2022-11-02T14:04:30.886Z,101825.69
2022-11-02T14:07:00.632Z,101822.06
2022-11-02T14:09:47.582Z,101818.59
2022-11-02T14:12:22.937Z,101820.94
2022-11-02T14:15:14.366Z,101825.19
2022-11-02T14:18:14.692Z,101821.72
2022-11-02T14:20:45.085Z,101823.56
2022-11-02T14:23:11.644Z,101813.19
2022-11-02T14:25:53.371Z,101809.19
2022-11-02T14:28:22.950Z,101807.91
2022-11-02T14:31:19.647Z,101815.25
2022-11-02T14:33:52.091Z,101806.88
2022-11-02T14:36:19.660Z,101805.31
2022-11-02T14:41:59.954Z,101798.63
2022-11-02T14:44:29.257Z,101795.88
2022-11-02T14:47:04.729Z,101803.00
2022-11-02T14:49:34.656Z,101797.69
2022-11-02T14:52:06.535Z,101792.47
2022-11-02T14:54:53.756Z,101795.34
2022-11-02T14:57:39.981Z,101788.66
2022-11-02T15:00:24.730Z,101785.44
2022-11-02T15:02:54.968Z,101781.22
2022-11-02T15:05:26.342Z,101776.25
2022-11-02T15:08:04.311Z,101777.38
2022-11-02T15:10:31.287Z,101787.88
2022-11-02T15:13:19.653Z,101774.22
2022-11-02T15:16:06.096Z,101773.53
2022-11-02T15:18:36.136Z,101766.03
2022-11-02T15:21:11.632Z,101767.03
2022-11-02T15:24:02.291Z,101761.97
2022-11-02T15:26:50.437Z,101766.59
2022-11-02T15:29:30.969Z,101764.28
2022-11-02T15:31:58.680Z,101762.75
2022-11-02T15:34:35.490Z,101762.06
2022-11-02T15:37:02.486Z,101764.75
2022-11-02T15:39:31.821Z,101762.06
2022-11-02T15:42:21.500Z,101764.69
2022-11-02T15:44:50.763Z,101767.53
2022-11-02T15:48:14.944Z,101770.47
2022-11-02T15:50:44.464Z,101768.94
2022-11-02T15:53:48.344Z,101770.09
2022-11-02T15:56:29.978Z,101766.81
2022-11-02T15:59:20.978Z,101762.69
2022-11-02T16:02:08.862Z,101761.91
2022-11-02T16:04:36.166Z,101761.19
2022-11-02T16:07:07.165Z,101759.59
2022-11-02T16:09:38.564Z,101758.88
2022-11-02T16:12:19.123Z,101765.00
2022-11-02T16:15:05.854Z,101756.56
2022-11-02T16:17:32.426Z,101762.84
2022-11-02T16:20:13.932Z,101742.94
2022-11-02T16:22:41.300Z,101749.97
2022-11-02T16:25:14.412Z,101754.41
2022-11-02T16:27:40.992Z,101747.25
2022-11-02T16:30:17.559Z,101762.06
2022-11-02T16:32:45.415Z,101756.16
2022-11-02T16:35:16.955Z,101751.84
2022-11-02T16:37:44.548Z,101757.97
2022-11-02T16:40:21.230Z,101752.06
2022-11-02T16:42:49.863Z,101744.34
2022-11-02T16:45:42.292Z,101744.34
2022-11-02T16:48:25.587Z,101749.63
2022-11-02T16:51:14.614Z,101749.75
2022-11-02T16:53:42.253Z,101752.47
2022-11-02T16:56:31.568Z,101748.22
2022-11-02T16:59:06.081Z,101753.56
2022-11-02T17:01:39.145Z,101751.09
2022-11-02T17:04:22.579Z,101746.97
2022-11-02T17:06:53.709Z,60685.94
2022-11-02T17:09:27.304Z,60685.94
2022-11-02T17:11:58.805Z,60685.94
2022-11-02T17:14:26.844Z,60685.94
2022-11-02T17:17:07.365Z,60685.94
2022-11-02T17:19:40.084Z,60685.94
2022-11-02T17:22:21.709Z,60685.94
2022-11-02T17:24:48.343Z,60685.94
2022-11-02T17:27:25.580Z,60685.94
2022-11-02T17:29:54.809Z,60685.94
2022-11-02T17:32:23.739Z,60685.94
2022-11-02T17:34:50.459Z,60685.94
2022-11-02T17:37:35.179Z,60685.94
2022-11-02T17:40:02.657Z,60685.94
2022-11-02T17:42:48.539Z,60685.94
2022-11-02T17:45:20.750Z,60685.94
2022-11-02T17:47:47.478Z,60685.94
2022-11-02T17:50:14.305Z,60685.94
2022-11-02T17:52:41.016Z,60685.94
2022-11-02T17:55:14.044Z,60685.94
2022-11-02T17:57:40.651Z,60685.94
2022-11-02T18:00:07.962Z,60685.94
2022-11-02T18:02:34.620Z,60685.94
2022-11-02T18:05:01.211Z,60685.94
2022-11-02T18:07:27.728Z,60685.94
2022-11-02T18:09:54.268Z,60685.94
2022-11-02T18:12:21.151Z,60685.94
2022-11-02T18:14:47.643Z,60685.94
2022-11-02T18:17:14.187Z,60685.94
2022-11-02T18:19:40.698Z,60685.94
2022-11-02T18:22:09.525Z,60685.94
2022-11-02T18:24:36.064Z,60685.94
2022-11-02T18:27:02.541Z,60685.94
2022-11-02T18:29:29.039Z,60685.94
2022-11-02T18:31:55.573Z,60685.94
2022-11-02T18:34:22.076Z,60685.94
2022-11-02T18:36:48.681Z,60685.94
2022-11-02T18:39:15.377Z,60685.94
2022-11-02T18:41:42.667Z,60685.94
2022-11-02T18:44:14.953Z,60685.94
2022-11-02T18:46:42.324Z,60685.94
2022-11-02T18:49:08.955Z,60685.94
2022-11-02T18:51:35.488Z,60685.94
2022-11-02T18:54:05.260Z,60685.94
2022-11-02T18:56:32.183Z,60685.94
2022-11-02T18:58:59.169Z,60685.94
2022-11-02T19:01:26.844Z,60685.94
2022-11-02T19:03:55.358Z,60685.94
2022-11-02T19:06:41.050Z,60685.94
2022-11-02T19:09:18.927Z,60685.94
2022-11-02T19:11:50.330Z,60685.94
2022-11-02T19:14:17.656Z,60685.94
2022-11-02T19:16:44.568Z,60685.94
2022-11-02T19:19:11.179Z,60685.94
2022-11-02T19:21:37.799Z,60685.94
2022-11-02T19:24:06.297Z,60685.94
2022-11-02T19:26:34.035Z,60685.94
2022-11-02T19:29:04.901Z,60685.94
2022-11-02T19:31:33.946Z,60685.94
2022-11-02T19:34:00.634Z,60685.94
2022-11-02T19:36:27.683Z,60685.94
2022-11-02T19:38:54.271Z,60685.94
2022-11-02T19:41:21.847Z,60685.94
2022-11-02T19:43:48.393Z,60685.94
2022-11-02T19:46:17.551Z,60685.94
2022-11-02T19:48:44.055Z,60685.94
2022-11-02T19:51:13.345Z,60685.94
2022-11-02T19:53:44.630Z,60685.94
2022-11-02T19:56:13.035Z,60685.94
2022-11-02T19:58:41.242Z,60685.94
2022-11-02T20:01:12.179Z,60685.94
2022-11-02T20:03:39.333Z,60685.94
2022-11-02T20:06:09.247Z,60685.94
2022-11-02T20:08:35.881Z,60685.94
2022-11-02T20:11:14.541Z,60685.94
2022-11-02T20:13:43.208Z,60685.94
2022-11-02T20:16:11.219Z,60685.94
2022-11-02T20:18:39.906Z,60685.94
2022-11-02T20:21:33.445Z,60685.94
2022-11-02T20:24:03.082Z,60685.94
2022-11-02T20:26:35.172Z,60685.94
2022-11-02T20:29:03.158Z,60685.94
2022-11-02T20:31:32.809Z,60685.94
2022-11-02T20:34:00.267Z,60685.94
2022-11-02T20:36:27.710Z,60685.94
2022-11-02T20:38:54.877Z,60685.94
2022-11-02T20:41:34.007Z,60685.94
2022-11-02T20:44:00.517Z,60685.94
2022-11-02T20:46:39.639Z,60685.94
2022-11-02T20:49:20.402Z,60685.94
2022-11-02T20:51:51.274Z,60685.94
2022-11-02T20:54:19.813Z,60685.94
2022-11-02T20:56:47.067Z,60685.94
2022-11-02T20:59:13.795Z,60685.94
2022-11-02T21:01:40.549Z,60685.94
2022-11-02T21:04:07.642Z,60685.94
2022-11-02T21:06:34.196Z,60685.94
2022-11-02T21:09:00.991Z,60685.94
2022-11-02T21:11:46.372Z,60685.94
2022-11-02T21:14:13.017Z,60685.94
2022-11-02T21:16:39.582Z,60685.94
2022-11-02T21:19:06.627Z,60685.94
2022-11-02T21:21:33.914Z,60685.94
2022-11-02T21:24:00.553Z,60685.94
2022-11-02T21:26:27.481Z,60685.94
2022-11-02T21:28:54.097Z,60685.94
2022-11-02T21:31:21.689Z,60685.94
2022-11-02T21:33:49.622Z,60685.94
2022-11-02T21:36:17.420Z,60685.94
2022-11-02T21:38:48.715Z,60685.94
2022-11-02T21:41:21.161Z,60685.94
2022-11-02T21:43:48.084Z,60685.94
2022-11-02T21:46:14.763Z,60685.94
2022-11-02T21:48:41.428Z,60685.94
2022-11-02T21:51:10.834Z,60685.94
2022-11-02T21:53:39.935Z,60685.94
2022-11-02T21:56:15.300Z,60685.94
2022-11-02T21:58:44.969Z,60685.94
2022-11-02T22:01:37.607Z,60685.94
2022-11-02T22:04:05.075Z,60685.94
2022-11-02T22:06:32.176Z,60685.94
2022-11-02T22:08:59.929Z,60685.94
2022-11-02T22:11:27.434Z,60685.94
2022-11-02T22:13:55.835Z,60685.94
2022-11-02T22:16:32.018Z,60685.94
2022-11-02T22:19:00.544Z,60685.94
2022-11-02T22:21:30.246Z,60685.94
2022-11-02T22:23:57.391Z,60685.94
2022-11-02T22:26:26.415Z,60685.94
2022-11-02T22:28:53.774Z,60685.94
2022-11-02T22:31:28.849Z,60685.94
2022-11-02T22:33:58.165Z,60685.94
2022-11-02T22:36:27.213Z,60685.94
2022-11-02T22:38:56.051Z,60685.94
2022-11-02T22:41:32.469Z,60685.94
2022-11-02T22:44:01.924Z,60685.94
2022-11-02T22:46:30.055Z,60685.94
2022-11-02T22:48:58.949Z,60685.94
2022-11-02T22:51:27.928Z,60685.94
2022-11-02T22:53:54.881Z,60685.94
2022-11-02T22:56:23.120Z,60685.94
2022-11-02T22:58:50.886Z,60685.94
2022-11-02T23:01:20.686Z,60685.94
2022-11-02T23:03:48.280Z,60685.94
2022-11-02T23:06:16.850Z,60685.94
2022-11-02T23:08:45.853Z,60685.94
2022-11-02T23:11:22.741Z,60685.94
2022-11-02T23:14:04.776Z,60685.94
2022-11-02T23:16:35.737Z,60685.94
2022-11-02T23:19:28.955Z,60685.94
2022-11-02T23:22:23.121Z,60685.94
2022-11-02T23:25:10.086Z,60685.94
2022-11-02T23:27:57.945Z,60685.94
2022-11-02T23:30:44.909Z,60685.94
2022-11-02T23:33:11.496Z,60685.94
2022-11-02T23:35:56.771Z,60685.94
2022-11-02T23:38:23.807Z,60685.94
2022-11-02T23:40:54.970Z,60685.94
2022-11-02T23:43:21.567Z,60685.94
2022-11-02T23:45:48.158Z,60685.94
2022-11-02T23:51:00.908Z,60685.94
2022-11-02T23:53:45.924Z,60685.94
2022-11-02T23:56:34.980Z,60685.94
2022-11-02T23:59:07.745Z,60685.94
